sensor_id;sensor_type;location;lat;lon;timestamp;P1;durP1;ratioP1;P2;durP2;ratioP2
18867;SDS011;9563;49.240;9.088;2024-02-28T05:02:29;26.73;;;13.80;;
18867;SDS011;9563;49.240;9.088;2024-02-28T05:04:56;32.50;;;15.33;;
18867;SDS011;9563;49.240;9.088;2024-02-28T05:07:23;29.87;;;14.23;;
18867;SDS011;9563;49.240;9.088;2024-02-28T05:09:50;31.37;;;15.33;;
18867;SDS011;9563;49.240;9.088;2024-02-28T05:12:16;30.70;;;15.67;;
18867;SDS011;9563;49.240;9.088;2024-02-28T05:14:43;35.33;;;15.03;;
18867;SDS011;9563;49.240;9.088;2024-02-28T05:17:11;33.30;;;14.43;;
18867;SDS011;9563;49.240;9.088;2024-02-28T05:19:40;33.20;;;15.10;;
18867;SDS011;9563;49.240;9.088;2024-02-28T05:22:06;29.37;;;14.60;;
18867;SDS011;9563;49.240;9.088;2024-02-28T05:24:34;29.37;;;14.70;;
18867;SDS011;9563;49.240;9.088;2024-02-28T05:27:01;29.27;;;14.70;;
18867;SDS011;9563;49.240;9.088;2024-02-28T05:29:28;30.50;;;15.30;;
18867;SDS011;9563;49.240;9.088;2024-02-28T05:31:54;33.10;;;15.63;;
18867;SDS011;9563;49.240;9.088;2024-02-28T05:34:21;30.27;;;14.93;;
18867;SDS011;9563;49.240;9.088;2024-02-28T05:36:50;32.00;;;15.00;;
18867;SDS011;9563;49.240;9.088;2024-02-28T05:39:16;31.37;;;15.07;;
18867;SDS011;9563;49.240;9.088;2024-02-28T05:41:43;36.03;;;16.33;;
18867;SDS011;9563;49.240;9.088;2024-02-28T05:44:10;30.00;;;14.77;;
18867;SDS011;9563;49.240;9.088;2024-02-28T05:46:37;29.93;;;14.60;;
18867;SDS011;9563;49.240;9.088;2024-02-28T05:49:04;36.00;;;15.13;;
18867;SDS011;9563;49.240;9.088;2024-02-28T05:51:31;28.47;;;14.83;;
18867;SDS011;9563;49.240;9.088;2024-02-28T05:53:59;32.83;;;15.13;;
18867;SDS011;9563;49.240;9.088;2024-02-28T05:56:27;27.63;;;14.17;;
18867;SDS011;9563;49.240;9.088;2024-02-28T05:58:55;28.70;;;14.10;;
18867;SDS011;9563;49.240;9.088;2024-02-28T06:01:22;30.07;;;15.60;;
18867;SDS011;9563;49.240;9.088;2024-02-28T06:03:48;31.93;;;15.40;;
18867;SDS011;9563;49.240;9.088;2024-02-28T06:06:15;32.90;;;15.37;;
18867;SDS011;9563;49.240;9.088;2024-02-28T06:08:43;28.00;;;14.73;;
18867;SDS011;9563;49.240;9.088;2024-02-28T06:11:11;32.67;;;15.40;;
18867;SDS011;9563;49.240;9.088;2024-02-28T06:13:40;35.93;;;16.97;;
18867;SDS011;9563;49.240;9.088;2024-02-28T06:16:07;33.50;;;16.07;;
18867;SDS011;9563;49.240;9.088;2024-02-28T06:18:34;34.80;;;15.47;;
18867;SDS011;9563;49.240;9.088;2024-02-28T06:21:01;30.47;;;15.40;;
18867;SDS011;9563;49.240;9.088;2024-02-28T06:23:27;31.17;;;14.97;;
18867;SDS011;9563;49.240;9.088;2024-02-28T06:25:54;30.27;;;15.00;;
18867;SDS011;9563;49.240;9.088;2024-02-28T06:28:23;33.13;;;15.63;;
18867;SDS011;9563;49.240;9.088;2024-02-28T06:30:49;31.17;;;14.87;;
18867;SDS011;9563;49.240;9.088;2024-02-28T06:33:16;30.50;;;15.37;;
18867;SDS011;9563;49.240;9.088;2024-02-28T06:35:43;34.13;;;15.97;;
18867;SDS011;9563;49.240;9.088;2024-02-28T06:38:10;35.13;;;15.97;;
18867;SDS011;9563;49.240;9.088;2024-02-28T06:40:37;31.70;;;15.80;;
18867;SDS011;9563;49.240;9.088;2024-02-28T06:43:04;34.37;;;15.40;;
18867;SDS011;9563;49.240;9.088;2024-02-28T06:45:32;37.60;;;16.70;;
18867;SDS011;9563;49.240;9.088;2024-02-28T06:47:59;35.13;;;15.63;;
18867;SDS011;9563;49.240;9.088;2024-02-28T06:50:26;38.33;;;17.20;;
18867;SDS011;9563;49.240;9.088;2024-02-28T06:52:52;34.27;;;16.57;;
18867;SDS011;9563;49.240;9.088;2024-02-28T06:55:19;36.93;;;16.73;;
18867;SDS011;9563;49.240;9.088;2024-02-28T06:57:46;30.37;;;15.60;;
18867;SDS011;9563;49.240;9.088;2024-02-28T07:00:13;33.97;;;16.40;;
18867;SDS011;9563;49.240;9.088;2024-02-28T07:02:42;33.50;;;15.63;;
18867;SDS011;9563;49.240;9.088;2024-02-28T07:05:09;31.70;;;15.03;;
18867;SDS011;9563;49.240;9.088;2024-02-28T07:07:36;32.77;;;15.43;;
18867;SDS011;9563;49.240;9.088;2024-02-28T07:10:03;29.83;;;15.37;;
18867;SDS011;9563;49.240;9.088;2024-02-28T07:12:30;32.00;;;15.10;;
18867;SDS011;9563;49.240;9.088;2024-02-28T07:14:57;33.33;;;15.33;;
18867;SDS011;9563;49.240;9.088;2024-02-28T07:17:24;33.17;;;16.13;;
18867;SDS011;9563;49.240;9.088;2024-02-28T07:19:52;33.07;;;16.97;;
18867;SDS011;9563;49.240;9.088;2024-02-28T07:22:19;33.10;;;15.97;;
18867;SDS011;9563;49.240;9.088;2024-02-28T07:24:47;31.30;;;14.23;;
18867;SDS011;9563;49.240;9.088;2024-02-28T07:27:14;30.73;;;14.53;;
18867;SDS011;9563;49.240;9.088;2024-02-28T07:29:41;32.73;;;15.00;;
18867;SDS011;9563;49.240;9.088;2024-02-28T07:32:08;33.83;;;15.93;;
18867;SDS011;9563;49.240;9.088;2024-02-28T07:34:34;31.13;;;15.17;;
18867;SDS011;9563;49.240;9.088;2024-02-28T07:37:03;31.83;;;15.27;;
18867;SDS011;9563;49.240;9.088;2024-02-28T07:39:30;32.77;;;15.13;;
18867;SDS011;9563;49.240;9.088;2024-02-28T07:41:57;33.60;;;14.70;;
18867;SDS011;9563;49.240;9.088;2024-02-28T07:44:23;33.60;;;14.87;;
18867;SDS011;9563;49.240;9.088;2024-02-28T07:46:50;30.40;;;14.53;;
18867;SDS011;9563;49.240;9.088;2024-02-28T07:49:17;26.93;;;13.47;;
18867;SDS011;9563;49.240;9.088;2024-02-28T07:51:44;29.43;;;14.53;;
18867;SDS011;9563;49.240;9.088;2024-02-28T07:54:13;28.60;;;13.47;;
18867;SDS011;9563;49.240;9.088;2024-02-28T07:56:39;28.07;;;12.87;;
18867;SDS011;9563;49.240;9.088;2024-02-28T07:59:06;28.17;;;12.17;;
18867;SDS011;9563;49.240;9.088;2024-02-28T08:01:33;26.93;;;12.50;;
18867;SDS011;9563;49.240;9.088;2024-02-28T08:04:01;29.80;;;13.87;;
18867;SDS011;9563;49.240;9.088;2024-02-28T08:06:28;25.77;;;13.27;;
18867;SDS011;9563;49.240;9.088;2024-02-28T08:08:56;26.57;;;11.50;;
18867;SDS011;9563;49.240;9.088;2024-02-28T08:11:24;24.83;;;12.77;;
18867;SDS011;9563;49.240;9.088;2024-02-28T08:13:51;27.57;;;13.20;;
18867;SDS011;9563;49.240;9.088;2024-02-28T08:16:17;30.23;;;14.13;;
18867;SDS011;9563;49.240;9.088;2024-02-28T08:18:45;24.40;;;12.23;;
18867;SDS011;9563;49.240;9.088;2024-02-28T08:21:12;24.50;;;13.00;;
18867;SDS011;9563;49.240;9.088;2024-02-28T08:23:38;22.40;;;11.67;;
18867;SDS011;9563;49.240;9.088;2024-02-28T08:26:05;30.07;;;11.90;;
18867;SDS011;9563;49.240;9.088;2024-02-28T08:28:33;23.93;;;11.90;;
18867;SDS011;9563;49.240;9.088;2024-02-28T08:31:00;25.47;;;11.80;;
18867;SDS011;9563;49.240;9.088;2024-02-28T08:33:27;24.70;;;12.30;;
18867;SDS011;9563;49.240;9.088;2024-02-28T08:35:54;23.07;;;11.33;;
18867;SDS011;9563;49.240;9.088;2024-02-28T08:38:20;24.87;;;12.00;;
18867;SDS011;9563;49.240;9.088;2024-02-28T08:40:47;22.23;;;11.20;;
18867;SDS011;9563;49.240;9.088;2024-02-28T08:43:14;24.83;;;11.00;;
18867;SDS011;9563;49.240;9.088;2024-02-28T08:45:42;24.40;;;12.27;;
18867;SDS011;9563;49.240;9.088;2024-02-28T08:48:09;23.87;;;11.80;;
18867;SDS011;9563;49.240;9.088;2024-02-28T08:50:36;25.20;;;13.23;;
18867;SDS011;9563;49.240;9.088;2024-02-28T08:53:03;24.23;;;11.40;;
18867;SDS011;9563;49.240;9.088;2024-02-28T08:55:30;24.00;;;13.03;;
18867;SDS011;9563;49.240;9.088;2024-02-28T08:57:57;26.00;;;14.03;;
18867;SDS011;9563;49.240;9.088;2024-02-28T09:00:24;24.37;;;11.00;;
18867;SDS011;9563;49.240;9.088;2024-02-28T09:02:52;21.30;;;11.40;;
18867;SDS011;9563;49.240;9.088;2024-02-28T09:05:19;21.67;;;11.63;;
18867;SDS011;9563;49.240;9.088;2024-02-28T09:07:46;26.90;;;13.70;;
18867;SDS011;9563;49.240;9.088;2024-02-28T09:10:17;31.47;;;14.77;;
18867;SDS011;9563;49.240;9.088;2024-02-28T09:12:46;30.53;;;13.60;;
18867;SDS011;9563;49.240;9.088;2024-02-28T09:15:13;26.73;;;13.83;;
18867;SDS011;9563;49.240;9.088;2024-02-28T09:17:40;27.47;;;13.03;;
18867;SDS011;9563;49.240;9.088;2024-02-28T09:20:09;31.83;;;13.83;;
18867;SDS011;9563;49.240;9.088;2024-02-28T09:22:37;25.00;;;12.37;;
18867;SDS011;9563;49.240;9.088;2024-02-28T09:25:05;23.83;;;12.17;;
18867;SDS011;9563;49.240;9.088;2024-02-28T09:27:33;22.80;;;12.67;;
18867;SDS011;9563;49.240;9.088;2024-02-28T09:30:00;23.40;;;12.00;;
18867;SDS011;9563;49.240;9.088;2024-02-28T09:32:27;23.70;;;13.03;;
18867;SDS011;9563;49.240;9.088;2024-02-28T09:34:54;21.63;;;12.07;;
18867;SDS011;9563;49.240;9.088;2024-02-28T09:37:22;24.07;;;11.90;;
18867;SDS011;9563;49.240;9.088;2024-02-28T09:39:50;21.93;;;11.20;;
18867;SDS011;9563;49.240;9.088;2024-02-28T09:42:17;25.30;;;12.77;;
18867;SDS011;9563;49.240;9.088;2024-02-28T09:44:45;22.60;;;11.90;;
18867;SDS011;9563;49.240;9.088;2024-02-28T09:47:12;25.73;;;13.33;;
18867;SDS011;9563;49.240;9.088;2024-02-28T09:49:39;22.67;;;11.50;;
18867;SDS011;9563;49.240;9.088;2024-02-28T09:52:08;21.20;;;11.50;;
18867;SDS011;9563;49.240;9.088;2024-02-28T09:54:36;23.27;;;12.17;;
18867;SDS011;9563;49.240;9.088;2024-02-28T09:57:04;22.23;;;12.10;;
18867;SDS011;9563;49.240;9.088;2024-02-28T09:59:31;21.83;;;10.98;;
18867;SDS011;9563;49.240;9.088;2024-02-28T10:01:59;18.07;;;10.10;;
18867;SDS011;9563;49.240;9.088;2024-02-28T10:04:28;20.33;;;10.53;;
18867;SDS011;9563;49.240;9.088;2024-02-28T10:06:55;21.70;;;11.43;;
18867;SDS011;9563;49.240;9.088;2024-02-28T10:09:22;18.87;;;10.27;;
18867;SDS011;9563;49.240;9.088;2024-02-28T10:11:51;19.67;;;10.70;;
18867;SDS011;9563;49.240;9.088;2024-02-28T10:14:18;16.73;;;9.10;;
18867;SDS011;9563;49.240;9.088;2024-02-28T10:16:45;22.87;;;11.33;;
18867;SDS011;9563;49.240;9.088;2024-02-28T10:19:12;21.80;;;11.63;;
18867;SDS011;9563;49.240;9.088;2024-02-28T10:21:39;22.35;;;10.85;;
18867;SDS011;9563;49.240;9.088;2024-02-28T10:24:06;19.10;;;9.73;;
18867;SDS011;9563;49.240;9.088;2024-02-28T10:26:33;18.50;;;10.57;;
18867;SDS011;9563;49.240;9.088;2024-02-28T10:29:09;21.48;;;11.15;;
18867;SDS011;9563;49.240;9.088;2024-02-28T10:31:37;19.42;;;10.05;;
18867;SDS011;9563;49.240;9.088;2024-02-28T10:34:03;23.45;;;10.35;;
18867;SDS011;9563;49.240;9.088;2024-02-28T10:36:31;17.88;;;9.90;;
18867;SDS011;9563;49.240;9.088;2024-02-28T10:38:59;17.55;;;10.00;;
18867;SDS011;9563;49.240;9.088;2024-02-28T10:41:26;16.80;;;9.48;;
18867;SDS011;9563;49.240;9.088;2024-02-28T10:43:54;16.73;;;9.57;;
18867;SDS011;9563;49.240;9.088;2024-02-28T10:46:23;17.02;;;9.27;;
18867;SDS011;9563;49.240;9.088;2024-02-28T10:48:50;15.55;;;9.40;;
18867;SDS011;9563;49.240;9.088;2024-02-28T10:51:19;11.90;;;6.97;;
18867;SDS011;9563;49.240;9.088;2024-02-28T10:53:49;13.55;;;7.28;;
18867;SDS011;9563;49.240;9.088;2024-02-28T10:56:20;15.85;;;7.40;;
18867;SDS011;9563;49.240;9.088;2024-02-28T10:58:49;12.48;;;7.25;;
18867;SDS011;9563;49.240;9.088;2024-02-28T11:01:18;12.13;;;7.30;;
18867;SDS011;9563;49.240;9.088;2024-02-28T11:03:47;12.85;;;7.35;;
18867;SDS011;9563;49.240;9.088;2024-02-28T11:06:18;14.18;;;7.05;;
18867;SDS011;9563;49.240;9.088;2024-02-28T11:08:46;14.80;;;7.70;;
18867;SDS011;9563;49.240;9.088;2024-02-28T11:11:18;14.13;;;7.25;;
18867;SDS011;9563;49.240;9.088;2024-02-28T11:13:51;11.52;;;7.05;;
18867;SDS011;9563;49.240;9.088;2024-02-28T11:16:25;12.10;;;7.10;;
18867;SDS011;9563;49.240;9.088;2024-02-28T11:18:59;15.70;;;7.95;;
18867;SDS011;9563;49.240;9.088;2024-02-28T11:21:34;14.20;;;8.20;;
18867;SDS011;9563;49.240;9.088;2024-02-28T11:24:01;12.63;;;8.05;;
18867;SDS011;9563;49.240;9.088;2024-02-28T11:26:30;16.95;;;8.05;;
18867;SDS011;9563;49.240;9.088;2024-02-28T11:28:57;13.07;;;7.80;;
18867;SDS011;9563;49.240;9.088;2024-02-28T11:31:24;14.73;;;8.50;;
18867;SDS011;9563;49.240;9.088;2024-02-28T11:33:54;15.35;;;8.25;;
18867;SDS011;9563;49.240;9.088;2024-02-28T11:36:22;15.68;;;7.57;;
18867;SDS011;9563;49.240;9.088;2024-02-28T11:38:49;13.40;;;7.65;;
18867;SDS011;9563;49.240;9.088;2024-02-28T11:41:24;14.90;;;9.13;;
18867;SDS011;9563;49.240;9.088;2024-02-28T11:43:52;13.63;;;8.57;;
18867;SDS011;9563;49.240;9.088;2024-02-28T11:46:19;12.45;;;7.63;;
18867;SDS011;9563;49.240;9.088;2024-02-28T11:48:46;11.00;;;7.45;;
18867;SDS011;9563;49.240;9.088;2024-02-28T11:51:13;12.57;;;7.30;;
18867;SDS011;9563;49.240;9.088;2024-02-28T11:53:41;13.30;;;7.93;;
18867;SDS011;9563;49.240;9.088;2024-02-28T11:56:08;12.65;;;8.25;;
18867;SDS011;9563;49.240;9.088;2024-02-28T11:58:35;14.15;;;8.32;;
18867;SDS011;9563;49.240;9.088;2024-02-28T12:01:02;14.63;;;8.05;;
18867;SDS011;9563;49.240;9.088;2024-02-28T12:03:30;13.98;;;7.75;;
18867;SDS011;9563;49.240;9.088;2024-02-28T12:05:56;13.40;;;7.93;;
18867;SDS011;9563;49.240;9.088;2024-02-28T12:08:24;14.70;;;7.90;;
18867;SDS011;9563;49.240;9.088;2024-02-28T12:10:52;18.88;;;8.50;;
18867;SDS011;9563;49.240;9.088;2024-02-28T12:13:19;12.50;;;7.53;;
18867;SDS011;9563;49.240;9.088;2024-02-28T12:15:49;13.50;;;7.93;;
18867;SDS011;9563;49.240;9.088;2024-02-28T12:18:15;11.23;;;7.13;;
18867;SDS011;9563;49.240;9.088;2024-02-28T12:20:42;13.27;;;6.97;;
18867;SDS011;9563;49.240;9.088;2024-02-28T12:23:11;11.48;;;7.15;;
18867;SDS011;9563;49.240;9.088;2024-02-28T12:25:38;13.25;;;8.05;;
18867;SDS011;9563;49.240;9.088;2024-02-28T12:28:06;12.75;;;7.40;;
18867;SDS011;9563;49.240;9.088;2024-02-28T12:30:41;11.63;;;6.75;;
18867;SDS011;9563;49.240;9.088;2024-02-28T12:33:08;17.83;;;8.02;;
18867;SDS011;9563;49.240;9.088;2024-02-28T12:35:36;12.48;;;7.72;;
18867;SDS011;9563;49.240;9.088;2024-02-28T12:38:03;12.15;;;6.85;;
18867;SDS011;9563;49.240;9.088;2024-02-28T12:40:30;13.18;;;7.28;;
18867;SDS011;9563;49.240;9.088;2024-02-28T12:42:57;14.93;;;8.38;;
18867;SDS011;9563;49.240;9.088;2024-02-28T12:45:25;12.38;;;7.38;;
18867;SDS011;9563;49.240;9.088;2024-02-28T12:47:52;12.02;;;7.50;;
18867;SDS011;9563;49.240;9.088;2024-02-28T12:50:21;14.80;;;8.50;;
18867;SDS011;9563;49.240;9.088;2024-02-28T12:52:49;15.57;;;8.25;;
18867;SDS011;9563;49.240;9.088;2024-02-28T12:55:23;13.77;;;8.00;;
18867;SDS011;9563;49.240;9.088;2024-02-28T12:57:52;14.38;;;8.75;;
18867;SDS011;9563;49.240;9.088;2024-02-28T13:10:11;16.80;;;9.20;;
18867;SDS011;9563;49.240;9.088;2024-02-28T13:15:43;14.77;;;8.73;;
18867;SDS011;9563;49.240;9.088;2024-02-28T13:18:11;13.77;;;8.07;;
18867;SDS011;9563;49.240;9.088;2024-02-28T13:20:39;11.73;;;7.55;;
18867;SDS011;9563;49.240;9.088;2024-02-28T13:23:07;13.98;;;7.95;;
18867;SDS011;9563;49.240;9.088;2024-02-28T13:25:35;12.05;;;7.28;;
18867;SDS011;9563;49.240;9.088;2024-02-28T13:28:02;11.95;;;7.22;;
18867;SDS011;9563;49.240;9.088;2024-02-28T13:30:29;12.68;;;6.65;;
18867;SDS011;9563;49.240;9.088;2024-02-28T13:32:59;10.23;;;6.85;;
18867;SDS011;9563;49.240;9.088;2024-02-28T13:35:26;15.38;;;7.30;;
18867;SDS011;9563;49.240;9.088;2024-02-28T13:37:53;11.10;;;6.68;;
18867;SDS011;9563;49.240;9.088;2024-02-28T13:40:26;15.82;;;8.45;;
18867;SDS011;9563;49.240;9.088;2024-02-28T13:42:53;15.50;;;8.30;;
18867;SDS011;9563;49.240;9.088;2024-02-28T13:45:20;15.80;;;7.60;;
18867;SDS011;9563;49.240;9.088;2024-02-28T13:47:46;15.68;;;7.72;;
18867;SDS011;9563;49.240;9.088;2024-02-28T13:50:13;14.45;;;7.03;;
18867;SDS011;9563;49.240;9.088;2024-02-28T13:52:40;12.18;;;7.30;;
18867;SDS011;9563;49.240;9.088;2024-02-28T13:55:10;11.45;;;6.22;;
18867;SDS011;9563;49.240;9.088;2024-02-28T13:57:38;13.32;;;7.00;;
18867;SDS011;9563;49.240;9.088;2024-02-28T14:00:06;14.32;;;7.95;;
18867;SDS011;9563;49.240;9.088;2024-02-28T14:02:36;11.45;;;7.07;;
18867;SDS011;9563;49.240;9.088;2024-02-28T14:05:03;11.52;;;6.40;;
18867;SDS011;9563;49.240;9.088;2024-02-28T14:07:32;14.50;;;7.85;;
18867;SDS011;9563;49.240;9.088;2024-02-28T14:10:02;13.82;;;7.45;;
18867;SDS011;9563;49.240;9.088;2024-02-28T14:12:29;10.38;;;6.43;;
18867;SDS011;9563;49.240;9.088;2024-02-28T14:14:58;9.80;;;5.88;;
18867;SDS011;9563;49.240;9.088;2024-02-28T14:17:25;12.82;;;7.03;;
18867;SDS011;9563;49.240;9.088;2024-02-28T14:19:51;13.68;;;7.50;;
18867;SDS011;9563;49.240;9.088;2024-02-28T14:22:19;11.75;;;6.72;;
18867;SDS011;9563;49.240;9.088;2024-02-28T14:24:46;11.90;;;7.40;;
18867;SDS011;9563;49.240;9.088;2024-02-28T14:27:13;12.38;;;7.68;;
18867;SDS011;9563;49.240;9.088;2024-02-28T14:29:40;12.20;;;7.07;;
18867;SDS011;9563;49.240;9.088;2024-02-28T14:32:09;13.88;;;7.72;;
18867;SDS011;9563;49.240;9.088;2024-02-28T14:34:40;13.75;;;7.40;;
18867;SDS011;9563;49.240;9.088;2024-02-28T14:37:07;17.38;;;7.82;;
18867;SDS011;9563;49.240;9.088;2024-02-28T14:39:34;13.57;;;7.30;;
18867;SDS011;9563;49.240;9.088;2024-02-28T14:42:01;15.95;;;7.35;;
18867;SDS011;9563;49.240;9.088;2024-02-28T14:44:28;10.57;;;6.43;;
18867;SDS011;9563;49.240;9.088;2024-02-28T14:46:55;11.10;;;6.88;;
18867;SDS011;9563;49.240;9.088;2024-02-28T14:49:23;10.63;;;6.30;;
18867;SDS011;9563;49.240;9.088;2024-02-28T14:51:50;11.10;;;6.70;;
18867;SDS011;9563;49.240;9.088;2024-02-28T14:54:17;15.00;;;7.45;;
18867;SDS011;9563;49.240;9.088;2024-02-28T14:56:49;12.73;;;7.07;;
18867;SDS011;9563;49.240;9.088;2024-02-28T14:59:17;13.30;;;6.97;;
18867;SDS011;9563;49.240;9.088;2024-02-28T15:01:44;14.80;;;6.60;;
18867;SDS011;9563;49.240;9.088;2024-02-28T15:04:11;12.70;;;7.57;;
18867;SDS011;9563;49.240;9.088;2024-02-28T15:06:41;12.77;;;6.88;;
18867;SDS011;9563;49.240;9.088;2024-02-28T15:09:08;11.70;;;6.45;;
18867;SDS011;9563;49.240;9.088;2024-02-28T15:11:41;11.60;;;6.55;;
18867;SDS011;9563;49.240;9.088;2024-02-28T15:14:08;14.80;;;7.63;;
18867;SDS011;9563;49.240;9.088;2024-02-28T15:16:36;12.25;;;7.30;;
18867;SDS011;9563;49.240;9.088;2024-02-28T15:19:04;11.52;;;6.85;;
18867;SDS011;9563;49.240;9.088;2024-02-28T15:21:31;12.10;;;6.80;;
18867;SDS011;9563;49.240;9.088;2024-02-28T15:24:01;14.95;;;7.53;;
18867;SDS011;9563;49.240;9.088;2024-02-28T15:26:30;13.00;;;7.25;;
18867;SDS011;9563;49.240;9.088;2024-02-28T15:28:58;12.95;;;6.97;;
18867;SDS011;9563;49.240;9.088;2024-02-28T15:31:25;15.57;;;7.57;;
18867;SDS011;9563;49.240;9.088;2024-02-28T15:33:53;14.00;;;7.32;;
18867;SDS011;9563;49.240;9.088;2024-02-28T15:36:21;13.93;;;7.72;;
18867;SDS011;9563;49.240;9.088;2024-02-28T15:38:48;16.85;;;7.90;;
18867;SDS011;9563;49.240;9.088;2024-02-28T15:41:16;14.13;;;8.20;;
18867;SDS011;9563;49.240;9.088;2024-02-28T15:43:44;19.60;;;9.68;;
18867;SDS011;9563;49.240;9.088;2024-02-28T15:46:12;17.15;;;9.07;;
18867;SDS011;9563;49.240;9.088;2024-02-28T15:48:40;20.85;;;10.32;;
18867;SDS011;9563;49.240;9.088;2024-02-28T15:51:06;14.88;;;8.85;;
18867;SDS011;9563;49.240;9.088;2024-02-28T15:53:33;20.15;;;10.02;;
18867;SDS011;9563;49.240;9.088;2024-02-28T15:56:02;21.20;;;9.68;;
18867;SDS011;9563;49.240;9.088;2024-02-28T15:58:31;21.27;;;9.68;;
18867;SDS011;9563;49.240;9.088;2024-02-28T16:01:08;20.25;;;9.43;;
18867;SDS011;9563;49.240;9.088;2024-02-28T16:03:35;15.27;;;8.07;;
18867;SDS011;9563;49.240;9.088;2024-02-28T16:06:02;18.48;;;8.27;;
18867;SDS011;9563;49.240;9.088;2024-02-28T16:08:29;18.20;;;9.43;;
18867;SDS011;9563;49.240;9.088;2024-02-28T16:10:56;20.33;;;9.32;;
18867;SDS011;9563;49.240;9.088;2024-02-28T16:13:24;17.98;;;9.05;;
18867;SDS011;9563;49.240;9.088;2024-02-28T16:15:53;16.20;;;8.60;;
18867;SDS011;9563;49.240;9.088;2024-02-28T16:18:20;19.98;;;9.35;;
18867;SDS011;9563;49.240;9.088;2024-02-28T16:20:47;19.27;;;8.80;;
18867;SDS011;9563;49.240;9.088;2024-02-28T16:23:13;19.30;;;9.27;;
18867;SDS011;9563;49.240;9.088;2024-02-28T16:25:40;21.45;;;9.43;;
18867;SDS011;9563;49.240;9.088;2024-02-28T16:28:07;19.13;;;9.38;;
18867;SDS011;9563;49.240;9.088;2024-02-28T16:30:34;17.48;;;9.23;;
18867;SDS011;9563;49.240;9.088;2024-02-28T16:33:03;20.92;;;9.23;;
18867;SDS011;9563;49.240;9.088;2024-02-28T16:35:34;18.23;;;9.45;;
18867;SDS011;9563;49.240;9.088;2024-02-28T16:38:02;23.00;;;9.20;;
18867;SDS011;9563;49.240;9.088;2024-02-28T16:40:29;19.50;;;9.30;;
18867;SDS011;9563;49.240;9.088;2024-02-28T16:42:56;16.38;;;8.93;;
18867;SDS011;9563;49.240;9.088;2024-02-28T16:45:22;20.63;;;9.02;;
18867;SDS011;9563;49.240;9.088;2024-02-28T16:47:49;21.67;;;8.90;;
18867;SDS011;9563;49.240;9.088;2024-02-28T16:50:19;19.55;;;9.63;;
18867;SDS011;9563;49.240;9.088;2024-02-28T16:52:46;20.85;;;9.70;;
18867;SDS011;9563;49.240;9.088;2024-02-28T16:55:12;22.50;;;10.10;;
18867;SDS011;9563;49.240;9.088;2024-02-28T16:57:39;16.10;;;9.35;;
18867;SDS011;9563;49.240;9.088;2024-02-28T17:00:06;24.35;;;11.02;;
18867;SDS011;9563;49.240;9.088;2024-02-28T17:02:35;15.77;;;8.90;;
18867;SDS011;9563;49.240;9.088;2024-02-28T17:05:02;21.92;;;9.30;;
18867;SDS011;9563;49.240;9.088;2024-02-28T17:07:36;18.13;;;9.30;;
18867;SDS011;9563;49.240;9.088;2024-02-28T17:10:03;21.40;;;10.50;;
18867;SDS011;9563;49.240;9.088;2024-02-28T17:12:31;16.03;;;8.67;;
18867;SDS011;9563;49.240;9.088;2024-02-28T17:14:58;18.13;;;9.77;;
18867;SDS011;9563;49.240;9.088;2024-02-28T17:17:25;22.08;;;11.00;;
18867;SDS011;9563;49.240;9.088;2024-02-28T17:19:52;19.00;;;9.87;;
18867;SDS011;9563;49.240;9.088;2024-02-28T17:22:20;18.90;;;10.20;;
18867;SDS011;9563;49.240;9.088;2024-02-28T17:24:48;17.77;;;9.77;;
18867;SDS011;9563;49.240;9.088;2024-02-28T17:27:16;18.60;;;9.53;;
18867;SDS011;9563;49.240;9.088;2024-02-28T17:29:43;20.83;;;10.77;;
18867;SDS011;9563;49.240;9.088;2024-02-28T17:32:10;23.73;;;10.20;;
18867;SDS011;9563;49.240;9.088;2024-02-28T17:34:37;19.47;;;9.93;;
18867;SDS011;9563;49.240;9.088;2024-02-28T17:37:03;22.40;;;10.50;;
18867;SDS011;9563;49.240;9.088;2024-02-28T17:39:30;18.67;;;10.17;;
18867;SDS011;9563;49.240;9.088;2024-02-28T17:41:59;18.27;;;9.03;;
18867;SDS011;9563;49.240;9.088;2024-02-28T17:44:25;18.53;;;9.57;;
18867;SDS011;9563;49.240;9.088;2024-02-28T17:46:52;23.33;;;11.00;;
18867;SDS011;9563;49.240;9.088;2024-02-28T17:49:19;20.73;;;10.40;;
18867;SDS011;9563;49.240;9.088;2024-02-28T17:51:46;19.83;;;9.53;;
18867;SDS011;9563;49.240;9.088;2024-02-28T17:54:13;23.17;;;10.10;;
18867;SDS011;9563;49.240;9.088;2024-02-28T17:56:40;21.40;;;10.37;;
18867;SDS011;9563;49.240;9.088;2024-02-28T17:59:09;18.93;;;10.20;;
18867;SDS011;9563;49.240;9.088;2024-02-28T18:01:34;26.10;;;11.53;;
18867;SDS011;9563;49.240;9.088;2024-02-28T18:04:01;20.77;;;10.60;;
18867;SDS011;9563;49.240;9.088;2024-02-28T18:06:28;21.63;;;10.63;;
18867;SDS011;9563;49.240;9.088;2024-02-28T18:08:55;23.60;;;11.70;;
18867;SDS011;9563;49.240;9.088;2024-02-28T18:11:23;21.67;;;10.17;;
18867;SDS011;9563;49.240;9.088;2024-02-28T18:13:50;22.43;;;11.17;;
18867;SDS011;9563;49.240;9.088;2024-02-28T18:16:19;25.53;;;11.60;;
18867;SDS011;9563;49.240;9.088;2024-02-28T18:18:46;22.50;;;12.30;;
18867;SDS011;9563;49.240;9.088;2024-02-28T18:21:13;22.20;;;11.77;;
18867;SDS011;9563;49.240;9.088;2024-02-28T18:23:40;24.57;;;12.80;;
18867;SDS011;9563;49.240;9.088;2024-02-28T18:26:07;24.30;;;12.90;;
18867;SDS011;9563;49.240;9.088;2024-02-28T18:28:34;23.57;;;12.07;;
18867;SDS011;9563;49.240;9.088;2024-02-28T18:31:03;24.30;;;11.77;;
18867;SDS011;9563;49.240;9.088;2024-02-28T18:33:32;20.63;;;10.27;;
18867;SDS011;9563;49.240;9.088;2024-02-28T18:35:59;23.47;;;11.17;;
18867;SDS011;9563;49.240;9.088;2024-02-28T18:38:26;22.47;;;11.13;;
18867;SDS011;9563;49.240;9.088;2024-02-28T18:40:53;23.17;;;11.60;;
18867;SDS011;9563;49.240;9.088;2024-02-28T18:43:20;19.53;;;10.90;;
18867;SDS011;9563;49.240;9.088;2024-02-28T18:45:46;22.57;;;10.90;;
18867;SDS011;9563;49.240;9.088;2024-02-28T18:48:13;20.27;;;10.13;;
18867;SDS011;9563;49.240;9.088;2024-02-28T18:50:42;24.10;;;11.53;;
18867;SDS011;9563;49.240;9.088;2024-02-28T18:53:08;22.60;;;10.90;;
18867;SDS011;9563;49.240;9.088;2024-02-28T18:55:35;22.83;;;11.93;;
18867;SDS011;9563;49.240;9.088;2024-02-28T18:58:02;24.03;;;11.07;;
18867;SDS011;9563;49.240;9.088;2024-02-28T19:00:29;21.73;;;11.27;;
18867;SDS011;9563;49.240;9.088;2024-02-28T19:02:56;22.40;;;11.67;;
18867;SDS011;9563;49.240;9.088;2024-02-28T19:05:24;23.63;;;12.20;;
18867;SDS011;9563;49.240;9.088;2024-02-28T19:07:53;27.97;;;12.40;;
18867;SDS011;9563;49.240;9.088;2024-02-28T19:10:20;21.30;;;11.20;;
18867;SDS011;9563;49.240;9.088;2024-02-28T19:12:47;21.80;;;11.47;;
18867;SDS011;9563;49.240;9.088;2024-02-28T19:15:13;24.97;;;10.97;;
18867;SDS011;9563;49.240;9.088;2024-02-28T19:17:40;24.13;;;10.63;;
18867;SDS011;9563;49.240;9.088;2024-02-28T19:20:08;25.07;;;10.67;;
18867;SDS011;9563;49.240;9.088;2024-02-28T19:22:36;19.00;;;10.33;;
18867;SDS011;9563;49.240;9.088;2024-02-28T19:25:05;20.97;;;11.07;;
18867;SDS011;9563;49.240;9.088;2024-02-28T19:27:32;19.80;;;10.00;;
18867;SDS011;9563;49.240;9.088;2024-02-28T19:30:03;24.33;;;11.73;;
18867;SDS011;9563;49.240;9.088;2024-02-28T19:32:33;27.60;;;13.67;;
18867;SDS011;9563;49.240;9.088;2024-02-28T19:35:03;25.47;;;12.07;;
18867;SDS011;9563;49.240;9.088;2024-02-28T19:37:30;24.23;;;12.07;;
18867;SDS011;9563;49.240;9.088;2024-02-28T19:39:57;28.67;;;13.00;;
18867;SDS011;9563;49.240;9.088;2024-02-28T19:42:33;27.03;;;13.27;;
18867;SDS011;9563;49.240;9.088;2024-02-28T19:45:01;28.30;;;14.63;;
18867;SDS011;9563;49.240;9.088;2024-02-28T19:47:28;26.67;;;12.30;;
18867;SDS011;9563;49.240;9.088;2024-02-28T19:49:55;24.60;;;13.20;;
18867;SDS011;9563;49.240;9.088;2024-02-28T19:52:24;27.13;;;12.03;;
18867;SDS011;9563;49.240;9.088;2024-02-28T19:54:54;26.03;;;13.57;;
18867;SDS011;9563;49.240;9.088;2024-02-28T19:57:21;28.37;;;13.77;;